Time;durP1;ratioP1;P1;durP2;ratioP2;P2;SDS_P1;SDS_P2;PMS_P1;PMS_P2;Temp;Humidity;BMP_temperature;BMP_pressure;BME280_temperature;BME280_humidity;BME280_pressure;Samples;Min_cycle;Max_cycle;Signal;HPM_P1;HPM_P2
2023/07/18 00:00:13;;;;;;;9.35;2.83;;;15.20;99.90;;;;;;5014736;28;20045;-67
2023/07/18 00:02:39;;;;;;;8.43;2.83;;;15.30;99.90;;;;;;5014112;28;20148;-67
2023/07/18 00:05:06;;;;;;;9.02;3.15;;;15.30;99.90;;;;;;5014873;28;20445;-67
2023/07/18 00:07:31;;;;;;;6.82;2.67;;;15.10;99.90;;;;;;5014833;28;20038;-67
2023/07/18 00:09:57;;;;;;;8.45;2.90;;;15.20;99.90;;;;;;5014840;28;20408;-67
2023/07/18 00:12:23;;;;;;;9.45;2.53;;;15.00;99.90;;;;;;5014879;28;20088;-67
2023/07/18 00:14:48;;;;;;;7.93;2.83;;;15.20;99.90;;;;;;5014729;28;20100;-67
2023/07/18 00:17:15;;;;;;;10.63;3.00;;;15.20;99.90;;;;;;5013175;28;20046;-67
2023/07/18 00:19:41;;;;;;;6.38;2.72;;;15.00;99.90;;;;;;5014617;28;20065;-67
2023/07/18 00:22:07;;;;;;;5.07;2.65;;;15.00;99.90;;;;;;5014256;28;20476;-67
2023/07/18 00:24:33;;;;;;;9.30;3.03;;;15.10;99.90;;;;;;5014485;28;20038;-67
2023/07/18 00:26:59;;;;;;;13.27;4.00;;;15.00;99.90;;;;;;5014303;28;20042;-67
2023/07/18 00:29:26;;;;;;;7.47;2.97;;;15.10;99.90;;;;;;5014267;28;20033;-67
2023/07/18 00:31:51;;;;;;;9.48;2.95;;;15.00;99.90;;;;;;5014098;28;20497;-67
2023/07/18 00:34:17;;;;;;;6.22;3.05;;;15.10;99.90;;;;;;5014308;28;20045;-67
2023/07/18 00:36:44;;;;;;;8.88;2.85;;;15.00;99.90;;;;;;5014245;28;20038;-67
2023/07/18 00:39:10;;;;;;;3.78;2.80;;;15.10;99.90;;;;;;5014266;28;20508;-67
2023/07/18 00:41:35;;;;;;;6.32;2.35;;;14.90;99.90;;;;;;5014034;28;20038;-67
2023/07/18 00:44:01;;;;;;;5.05;2.30;;;15.00;99.90;;;;;;5014281;28;20042;-67
2023/07/18 00:46:27;;;;;;;8.77;2.95;;;15.00;99.90;;;;;;5012799;28;20061;-67
2023/07/18 00:48:54;;;;;;;6.57;2.60;;;14.90;99.90;;;;;;5020612;28;20041;-67
2023/07/18 00:51:19;;;;;;;6.70;3.28;;;14.80;99.90;;;;;;5031171;28;20041;-67
2023/07/18 00:53:45;;;;;;;8.73;2.88;;;14.80;99.90;;;;;;5024514;28;20083;-67
2023/07/18 00:56:12;;;;;;;6.72;3.00;;;14.90;99.90;;;;;;5032927;28;20702;-67
2023/07/18 00:58:39;;;;;;;6.93;2.75;;;14.80;99.90;;;;;;5033695;28;20076;-67
2023/07/18 01:01:05;;;;;;;7.70;2.50;;;14.90;99.90;;;;;;5033353;28;20120;-67
2023/07/18 01:03:30;;;;;;;6.82;2.80;;;14.70;99.90;;;;;;5033550;28;20549;-67
2023/07/18 01:05:56;;;;;;;8.35;3.00;;;14.90;99.90;;;;;;5033519;28;20061;-67
2023/07/18 01:08:22;;;;;;;10.07;2.50;;;14.90;99.90;;;;;;5033594;28;20107;-67
2023/07/18 01:10:47;;;;;;;5.30;2.58;;;14.90;99.90;;;;;;5033531;28;20044;-67
2023/07/18 01:13:13;;;;;;;7.43;3.13;;;14.80;99.90;;;;;;5034009;28;20042;-67
2023/07/18 01:15:38;;;;;;;5.93;2.50;;;14.90;99.90;;;;;;5033631;28;20041;-67
2023/07/18 01:18:08;;;;;;;6.90;2.85;;;14.70;99.90;;;;;;5034059;28;20121;-67
2023/07/18 01:20:36;;;;;;;4.85;3.03;;;14.80;99.90;;;;;;5048960;28;20037;-67
2023/07/18 01:23:05;;;;;;;9.73;2.47;;;14.80;99.90;;;;;;5033794;28;20041;-67
2023/07/18 01:25:31;;;;;;;7.50;3.03;;;14.70;99.90;;;;;;5033346;28;20489;-67
2023/07/18 01:27:59;;;;;;;9.95;3.00;;;14.80;99.90;;;;;;5033458;28;20496;-67
2023/07/18 01:30:26;;;;;;;7.35;2.92;;;14.70;99.90;;;;;;5033255;28;20046;-67
2023/07/18 01:32:52;;;;;;;11.75;3.10;;;14.70;99.90;;;;;;5032521;28;20172;-67
2023/07/18 01:35:21;;;;;;;7.38;2.80;;;14.70;99.90;;;;;;5033205;28;20052;-67
2023/07/18 01:37:47;;;;;;;6.82;2.90;;;14.70;99.90;;;;;;5033036;28;20053;-67
2023/07/18 01:40:15;;;;;;;8.02;3.33;;;14.70;99.90;;;;;;5031966;28;20041;-66
2023/07/18 01:42:42;;;;;;;7.30;3.30;;;14.70;99.90;;;;;;5032832;28;20099;-67
2023/07/18 01:45:09;;;;;;;5.25;2.70;;;14.60;99.90;;;;;;5033438;28;20045;-67
2023/07/18 01:47:36;;;;;;;9.57;2.90;;;14.60;99.90;;;;;;5032938;28;20095;-67
2023/07/18 01:50:04;;;;;;;8.98;3.50;;;14.60;99.90;;;;;;5032984;28;20073;-67
2023/07/18 01:52:31;;;;;;;8.52;3.70;;;14.60;99.90;;;;;;5032891;28;20052;-67
2023/07/18 01:54:58;;;;;;;7.63;3.10;;;14.50;99.90;;;;;;5032772;28;20413;-67
2023/07/18 01:57:31;;;;;;;6.28;2.90;;;14.60;99.90;;;;;;5032288;28;20110;-67
2023/07/18 02:00:00;;;;;;;8.15;3.13;;;14.60;99.90;;;;;;5032618;28;20041;-67
2023/07/18 02:02:28;;;;;;;6.00;3.08;;;14.50;99.90;;;;;;5032071;28;20543;-67
2023/07/18 02:04:53;;;;;;;6.80;2.72;;;14.50;99.90;;;;;;5032517;28;20108;-67
2023/07/18 02:07:19;;;;;;;9.48;2.85;;;14.50;99.90;;;;;;5032171;28;20092;-67
2023/07/18 02:09:44;;;;;;;4.50;2.72;;;14.50;99.90;;;;;;5032274;28;20386;-67
2023/07/18 02:12:10;;;;;;;7.53;3.30;;;14.50;99.90;;;;;;5032192;28;20112;-67
2023/07/18 02:14:36;;;;;;;6.75;2.95;;;14.50;99.90;;;;;;5032590;28;20167;-67
2023/07/18 02:17:03;;;;;;;12.70;3.35;;;14.50;99.90;;;;;;5032203;28;20041;-67
2023/07/18 02:19:28;;;;;;;6.95;3.10;;;14.50;99.90;;;;;;5032382;28;20068;-67
2023/07/18 02:21:54;;;;;;;10.70;3.35;;;14.40;99.90;;;;;;5068600;22;20523;-68
2023/07/18 02:24:20;;;;;;;10.73;3.60;;;14.50;99.90;;;;;;5051964;28;20041;-67
2023/07/18 02:26:45;;;;;;;5.63;2.55;;;14.30;99.90;;;;;;5051441;28;20037;-67
2023/07/18 02:29:11;;;;;;;6.82;2.83;;;14.20;99.90;;;;;;5046115;28;20457;-68
2023/07/18 02:31:37;;;;;;;8.02;3.22;;;14.30;99.90;;;;;;5019052;28;20132;-68
2023/07/18 02:34:04;;;;;;;10.65;3.50;;;14.40;99.90;;;;;;4994803;28;20113;-67
2023/07/18 02:36:30;;;;;;;8.55;3.30;;;14.30;99.90;;;;;;5011979;28;20048;-67
2023/07/18 02:38:55;;;;;;;6.47;2.75;;;14.20;99.90;;;;;;5012154;28;20128;-67
2023/07/18 02:41:21;;;;;;;7.38;3.20;;;14.30;99.90;;;;;;5012275;28;20477;-70
2023/07/18 02:43:47;;;;;;;4.97;3.00;;;14.20;99.90;;;;;;4994747;28;20507;-70
2023/07/18 02:46:13;;;;;;;10.02;3.00;;;14.30;99.90;;;;;;4994379;28;20034;-68
2023/07/18 02:48:39;;;;;;;7.25;3.00;;;14.30;99.90;;;;;;4994580;28;20121;-67
2023/07/18 02:51:05;;;;;;;10.32;3.40;;;14.40;99.90;;;;;;4994661;28;20041;-68
2023/07/18 02:53:30;;;;;;;13.65;4.20;;;14.20;99.90;;;;;;5011718;28;20477;-68
2023/07/18 02:55:56;;;;;;;8.43;3.70;;;14.40;99.90;;;;;;5011928;28;20552;-68
2023/07/18 02:58:22;;;;;;;6.10;3.45;;;14.40;99.90;;;;;;5012123;28;20038;-68
2023/07/18 03:00:50;;;;;;;7.80;3.20;;;14.20;99.90;;;;;;5011956;28;20168;-68
2023/07/18 03:03:16;;;;;;;12.73;3.90;;;14.30;99.90;;;;;;5011905;28;20113;-68
2023/07/18 03:05:41;;;;;;;7.25;2.83;;;14.30;99.90;;;;;;5011690;28;20124;-67
2023/07/18 03:08:07;;;;;;;11.82;3.42;;;14.40;99.90;;;;;;5011604;28;20437;-67
2023/07/18 03:10:32;;;;;;;9.07;3.15;;;14.30;99.90;;;;;;4994192;28;20507;-68
2023/07/18 03:12:58;;;;;;;12.00;3.13;;;14.20;99.90;;;;;;4994240;28;20084;-67
2023/07/18 03:15:24;;;;;;;8.38;3.25;;;14.30;99.90;;;;;;4995934;28;20064;-68
2023/07/18 03:17:50;;;;;;;10.85;3.40;;;14.20;99.90;;;;;;5015518;28;20517;-68
2023/07/18 03:20:19;;;;;;;8.80;3.42;;;14.10;99.90;;;;;;5015590;28;20041;-67
2023/07/18 03:22:49;;;;;;;9.45;3.50;;;14.30;99.90;;;;;;4998005;28;20080;-67
2023/07/18 03:25:17;;;;;;;8.15;3.85;;;14.30;99.90;;;;;;5015835;28;20073;-68
2023/07/18 03:27:43;;;;;;;10.75;3.28;;;14.10;99.90;;;;;;5015157;28;20097;-68
2023/07/18 03:30:12;;;;;;;12.75;3.72;;;14.30;99.90;;;;;;5015667;28;20037;-67
2023/07/18 03:32:39;;;;;;;8.10;3.25;;;14.30;99.90;;;;;;5015558;28;20038;-67
2023/07/18 03:35:06;;;;;;;10.45;3.88;;;14.30;99.90;;;;;;5015500;28;20038;-67
2023/07/18 03:37:32;;;;;;;9.73;3.80;;;14.30;99.90;;;;;;5014992;28;20095;-68
2023/07/18 03:39:58;;;;;;;10.70;4.35;;;14.30;99.90;;;;;;5015246;28;20481;-67
2023/07/18 03:42:24;;;;;;;7.75;4.00;;;14.20;99.90;;;;;;5015393;28;20124;-67
2023/07/18 03:44:49;;;;;;;11.60;3.58;;;14.40;99.90;;;;;;5015474;28;20117;-67
2023/07/18 03:47:15;;;;;;;11.38;4.22;;;14.30;99.90;;;;;;5015026;28;20452;-67
2023/07/18 03:49:40;;;;;;;7.15;2.83;;;14.30;99.90;;;;;;5015167;28;20112;-67
2023/07/18 03:52:06;;;;;;;7.13;3.67;;;14.20;99.90;;;;;;5014992;28;20042;-68
2023/07/18 03:54:35;;;;;;;13.52;3.90;;;14.30;99.90;;;;;;5015365;28;20045;-67
2023/07/18 03:57:00;;;;;;;9.25;3.45;;;14.40;99.90;;;;;;5014716;28;20046;-67
2023/07/18 03:59:26;;;;;;;10.20;3.50;;;14.30;99.90;;;;;;5015138;28;20436;-67
2023/07/18 04:01:52;;;;;;;11.15;3.50;;;14.30;99.90;;;;;;4997324;28;20068;-68
2023/07/18 04:04:18;;;;;;;8.38;3.38;;;14.30;99.90;;;;;;4997646;28;20052;-68
2023/07/18 04:06:43;;;;;;;11.30;3.60;;;14.30;99.90;;;;;;5014735;28;20030;-68
2023/07/18 04:09:10;;;;;;;7.03;3.38;;;14.40;99.90;;;;;;4997301;28;20038;-67
2023/07/18 04:11:35;;;;;;;6.63;3.63;;;14.30;99.90;;;;;;4980899;28;20049;-67
2023/07/18 04:14:01;;;;;;;6.72;3.97;;;14.30;99.90;;;;;;5014799;28;20493;-68
2023/07/18 04:16:27;;;;;;;14.90;4.40;;;14.30;99.90;;;;;;5014489;28;20046;-68
2023/07/18 04:18:52;;;;;;;9.23;3.80;;;14.30;99.90;;;;;;5014652;28;20044;-68
2023/07/18 04:21:18;;;;;;;9.63;4.13;;;14.20;99.90;;;;;;4997074;28;20076;-68
2023/07/18 04:23:43;;;;;;;8.52;3.22;;;14.20;99.90;;;;;;4997056;28;20093;-68
2023/07/18 04:26:09;;;;;;;8.43;3.92;;;14.30;99.90;;;;;;5014194;28;20092;-68
2023/07/18 04:28:36;;;;;;;9.35;3.88;;;14.40;99.90;;;;;;5014649;28;20080;-68
2023/07/18 04:31:02;;;;;;;10.25;3.63;;;14.30;99.90;;;;;;5014491;28;20045;-68
2023/07/18 04:33:38;;;;;;;12.00;4.35;;;14.30;99.90;;;;;;5014434;28;20045;-68
2023/07/18 04:36:05;;;;;;;10.55;4.13;;;14.40;99.90;;;;;;5014363;28;20036;-68
2023/07/18 04:38:31;;;;;;;8.52;3.80;;;14.60;99.90;;;;;;4996837;28;20052;-68
2023/07/18 04:40:58;;;;;;;11.93;4.35;;;14.50;99.90;;;;;;5014161;28;20045;-68
2023/07/18 04:43:23;;;;;;;10.63;4.22;;;14.60;99.90;;;;;;5014314;28;20113;-68
2023/07/18 04:45:49;;;;;;;11.43;4.30;;;14.70;99.90;;;;;;4980321;28;20179;-68
2023/07/18 04:48:17;;;;;;;7.15;3.92;;;14.60;99.90;;;;;;5014131;28;20038;-68
2023/07/18 04:50:45;;;;;;;9.70;4.00;;;14.70;99.90;;;;;;4996511;28;20038;-68
2023/07/18 04:53:11;;;;;;;12.57;4.25;;;14.90;99.90;;;;;;4996526;28;20120;-68
2023/07/18 04:55:37;;;;;;;8.20;4.45;;;14.80;99.90;;;;;;5013847;28;20081;-68
2023/07/18 04:58:04;;;;;;;8.73;3.85;;;14.80;99.90;;;;;;4996378;28;20046;-68
2023/07/18 05:00:31;;;;;;;9.43;3.72;;;14.90;99.90;;;;;;4996028;28;20042;-68
2023/07/18 05:02:57;;;;;;;9.55;4.07;;;15.00;99.90;;;;;;4996020;28;20513;-68
2023/07/18 05:05:25;;;;;;;12.63;4.35;;;14.90;99.90;;;;;;4996502;28;20556;-68
2023/07/18 05:07:51;;;;;;;10.18;3.85;;;14.90;99.90;;;;;;4995827;28;20038;-68
2023/07/18 05:10:16;;;;;;;10.00;4.18;;;14.90;99.90;;;;;;4996239;28;20038;-68
2023/07/18 05:12:43;;;;;;;10.38;4.95;;;15.10;99.90;;;;;;5013632;28;20539;-68
2023/07/18 05:15:09;;;;;;;13.52;4.30;;;15.00;99.90;;;;;;4995912;28;20065;-68
2023/07/18 05:17:35;;;;;;;8.68;4.20;;;15.10;99.90;;;;;;5013325;28;20050;-68
2023/07/18 05:20:01;;;;;;;10.48;3.78;;;15.00;99.90;;;;;;5013714;28;20037;-68
2023/07/18 05:22:27;;;;;;;11.15;3.95;;;15.00;99.90;;;;;;5013486;28;20061;-68
2023/07/18 05:24:52;;;;;;;9.45;4.57;;;15.00;99.90;;;;;;5013325;28;20496;-68
2023/07/18 05:27:21;;;;;;;9.45;4.00;;;15.20;99.90;;;;;;4995435;28;20038;-68
2023/07/18 05:29:47;;;;;;;9.40;3.67;;;15.10;99.90;;;;;;4995684;28;20489;-68
2023/07/18 05:32:13;;;;;;;11.13;3.90;;;15.30;99.90;;;;;;5013212;28;20124;-68
2023/07/18 05:34:38;;;;;;;14.10;4.68;;;15.20;99.90;;;;;;5013252;28;20049;-68
2023/07/18 05:37:04;;;;;;;9.57;3.80;;;15.20;99.90;;;;;;5012654;28;20087;-68
2023/07/18 05:39:30;;;;;;;10.52;4.00;;;15.50;99.90;;;;;;5012749;28;20559;-68
2023/07/18 05:41:56;;;;;;;11.80;4.18;;;15.60;99.90;;;;;;4995147;28;20042;-68
2023/07/18 05:44:21;;;;;;;11.15;4.22;;;15.70;99.90;;;;;;5012918;28;20145;-68
2023/07/18 05:46:47;;;;;;;12.15;3.83;;;15.70;99.90;;;;;;5012823;28;20128;-68
2023/07/18 05:49:14;;;;;;;7.63;3.90;;;15.70;99.90;;;;;;5013061;28;20493;-68
2023/07/18 05:51:40;;;;;;;12.80;4.47;;;15.90;99.90;;;;;;4995266;28;20057;-68
2023/07/18 05:54:05;;;;;;;9.80;4.63;;;15.90;99.90;;;;;;5012921;28;20485;-68
2023/07/18 05:56:32;;;;;;;8.68;3.70;;;16.20;99.90;;;;;;5012515;28;20080;-68
2023/07/18 05:58:59;;;;;;;11.68;4.07;;;16.20;99.90;;;;;;5012718;28;20046;-68
2023/07/18 06:01:25;;;;;;;13.27;4.28;;;16.50;99.90;;;;;;5012445;28;20041;-68
2023/07/18 06:03:50;;;;;;;12.63;4.35;;;16.50;99.90;;;;;;5012754;28;20501;-68
2023/07/18 06:06:16;;;;;;;11.35;4.40;;;16.60;99.90;;;;;;5012151;28;20525;-68
2023/07/18 06:08:42;;;;;;;11.85;4.03;;;16.80;99.90;;;;;;5012656;28;20460;-68
2023/07/18 06:11:07;;;;;;;11.23;4.35;;;16.90;99.90;;;;;;5012336;28;20378;-68
2023/07/18 06:13:33;;;;;;;12.85;4.57;;;17.10;99.90;;;;;;5012066;28;20409;-68
2023/07/18 06:15:59;;;;;;;13.00;4.13;;;17.30;99.90;;;;;;5012455;28;20040;-68
2023/07/18 06:18:24;;;;;;;14.57;4.65;;;17.30;99.90;;;;;;5012719;28;20045;-68
2023/07/18 06:20:50;;;;;;;13.98;5.45;;;17.20;99.90;;;;;;5012391;28;20501;-68
2023/07/18 06:23:16;;;;;;;17.83;4.43;;;17.20;99.90;;;;;;5012319;28;20124;-68
2023/07/18 06:25:41;;;;;;;12.02;4.10;;;17.20;99.90;;;;;;5012273;28;20053;-68
2023/07/18 06:28:07;;;;;;;12.95;4.15;;;17.00;99.90;;;;;;5011911;28;20038;-68
2023/07/18 06:30:33;;;;;;;16.05;5.38;;;17.20;99.90;;;;;;5012296;28;20386;-68
2023/07/18 06:32:59;;;;;;;19.67;6.18;;;17.20;99.90;;;;;;5012109;28;20049;-68
2023/07/18 06:35:24;;;;;;;16.75;5.05;;;17.10;99.90;;;;;;5012230;28;20042;-68
2023/07/18 06:37:50;;;;;;;16.83;5.60;;;17.30;99.90;;;;;;5011889;28;20608;-68
2023/07/18 06:40:16;;;;;;;17.95;6.35;;;17.40;99.90;;;;;;5012041;28;20026;-68
2023/07/18 06:42:42;;;;;;;16.27;4.80;;;17.40;99.90;;;;;;4994400;28;20034;-68
2023/07/18 06:45:08;;;;;;;15.52;5.85;;;17.60;99.90;;;;;;5012356;28;20052;-68
2023/07/18 06:47:34;;;;;;;15.38;4.22;;;17.70;99.90;;;;;;4994208;28;20084;-68
2023/07/18 06:49:59;;;;;;;14.18;4.30;;;17.70;99.90;;;;;;4993547;28;20041;-68
2023/07/18 06:52:26;;;;;;;14.93;4.75;;;17.90;99.90;;;;;;5011752;28;20457;-68
2023/07/18 06:54:53;;;;;;;11.73;4.65;;;17.90;99.90;;;;;;5012159;28;20468;-68
2023/07/18 06:57:19;;;;;;;11.43;4.07;;;17.90;99.90;;;;;;4993059;28;20052;-68
2023/07/18 06:59:44;;;;;;;10.15;3.70;;;18.00;99.90;;;;;;5011727;28;20045;-68
2023/07/18 07:02:11;;;;;;;14.70;4.07;;;18.10;99.90;;;;;;5011493;28;20044;-68
2023/07/18 07:04:37;;;;;;;9.50;3.60;;;18.20;99.90;;;;;;4994443;28;20045;-68
2023/07/18 07:07:06;;;;;;;16.27;4.45;;;18.30;99.90;;;;;;5011519;28;20045;-68
2023/07/18 07:09:33;;;;;;;13.45;4.55;;;18.00;99.90;;;;;;5011791;28;20033;-68
2023/07/18 07:11:59;;;;;;;13.05;4.20;;;18.00;99.90;;;;;;4993936;28;20084;-68
2023/07/18 07:14:25;;;;;;;17.13;4.47;;;18.20;99.90;;;;;;5011839;28;20505;-68
2023/07/18 07:16:50;;;;;;;11.23;3.40;;;18.60;99.90;;;;;;5011575;28;20049;-68
2023/07/18 07:19:16;;;;;;;15.73;4.70;;;18.80;99.90;;;;;;5011803;28;20053;-68
2023/07/18 07:21:42;;;;;;;12.73;3.83;;;19.00;99.90;;;;;;4993882;28;20092;-68
2023/07/18 07:24:08;;;;;;;12.82;4.97;;;19.30;99.90;;;;;;5011784;28;20042;-68
2023/07/18 07:26:37;;;;;;;13.15;3.97;;;19.40;99.90;;;;;;5011301;28;20038;-68
2023/07/18 07:29:07;;;;;;;8.45;3.72;;;19.80;99.90;;;;;;4994379;28;20045;-68
2023/07/18 07:31:32;;;;;;;12.00;4.28;;;20.40;99.90;;;;;;4977803;28;20049;-68
2023/07/18 07:33:58;;;;;;;12.80;4.15;;;20.70;99.90;;;;;;4993787;28;20046;-68
2023/07/18 07:36:24;;;;;;;13.02;3.67;;;20.80;99.90;;;;;;5011331;28;20070;-68
2023/07/18 07:38:49;;;;;;;10.98;3.63;;;21.10;99.90;;;;;;5011508;28;20069;-68
2023/07/18 07:41:15;;;;;;;13.48;3.80;;;21.40;99.90;;;;;;5011496;28;20044;-69
2023/07/18 07:43:41;;;;;;;15.55;4.97;;;21.80;99.90;;;;;;5011447;28;20493;-69
2023/07/18 07:46:07;;;;;;;12.73;3.83;;;21.60;99.90;;;;;;5007557;28;20064;-68
2023/07/18 07:48:32;;;;;;;16.65;3.97;;;21.50;99.90;;;;;;4989589;28;20037;-68
2023/07/18 07:51:00;;;;;;;13.65;3.90;;;21.40;99.90;;;;;;5031001;28;20095;-68
2023/07/18 07:53:26;;;;;;;9.65;3.50;;;21.20;99.90;;;;;;5022780;28;20053;-69
2023/07/18 07:55:52;;;;;;;11.20;3.65;;;21.40;99.90;;;;;;5022103;28;20511;-69
2023/07/18 07:58:17;;;;;;;14.63;4.82;;;21.30;99.90;;;;;;5030781;28;20064;-69
2023/07/18 08:00:43;;;;;;;15.90;4.03;;;21.30;99.90;;;;;;5013385;28;20400;-69
2023/07/18 08:03:09;;;;;;;13.07;3.95;;;21.40;99.90;;;;;;5023610;28;20071;-69
2023/07/18 08:05:35;;;;;;;14.88;4.05;;;21.30;99.90;;;;;;5025791;28;20085;-70
2023/07/18 08:08:01;;;;;;;8.88;3.47;;;21.40;99.90;;;;;;4996947;28;20037;-69
2023/07/18 08:10:27;;;;;;;13.75;3.65;;;21.80;99.90;;;;;;5014575;28;20141;-69
2023/07/18 08:12:52;;;;;;;14.40;3.17;;;22.10;99.90;;;;;;5018118;28;20405;-69
2023/07/18 08:15:19;;;;;;;11.65;4.45;;;22.50;99.90;;;;;;5027179;28;20041;-69
2023/07/18 08:17:45;;;;;;;14.60;4.32;;;22.50;99.90;;;;;;5024810;28;20555;-69
2023/07/18 08:20:12;;;;;;;12.00;4.30;;;22.70;99.90;;;;;;4996602;28;20042;-69
2023/07/18 08:22:38;;;;;;;10.63;3.00;;;23.10;99.90;;;;;;5004859;23;20527;-69
2023/07/18 08:25:04;;;;;;;11.57;2.70;;;23.40;99.90;;;;;;5013960;28;20501;-68
2023/07/18 08:27:30;;;;;;;12.10;3.00;;;23.30;99.90;;;;;;5012954;28;20100;-68
2023/07/18 08:29:56;;;;;;;6.25;2.47;;;23.20;99.90;;;;;;5013903;28;20045;-68
2023/07/18 08:32:22;;;;;;;10.90;2.47;;;23.20;99.90;;;;;;5000171;28;20049;-68
2023/07/18 08:34:47;;;;;;;7.93;2.17;;;23.10;99.90;;;;;;4976860;28;20113;-68
2023/07/18 08:37:13;;;;;;;10.95;3.20;;;23.20;99.90;;;;;;4975128;28;20042;-68
2023/07/18 08:39:38;;;;;;;10.77;3.15;;;23.40;99.90;;;;;;4975293;28;20031;-68
2023/07/18 08:42:06;;;;;;;17.42;3.88;;;23.70;99.90;;;;;;4984141;28;20038;-68
2023/07/18 08:44:34;;;;;;;10.57;2.58;;;23.50;99.90;;;;;;4992093;28;20121;-68
2023/07/18 08:47:02;;;;;;;11.60;2.40;;;23.70;99.90;;;;;;4986751;28;20089;-68
2023/07/18 08:49:30;;;;;;;8.05;3.10;;;23.70;99.90;;;;;;4983230;28;20077;-68
2023/07/18 08:51:56;;;;;;;5.68;2.60;;;23.70;99.90;;;;;;4975306;28;20043;-68
2023/07/18 08:54:22;;;;;;;8.70;3.05;;;23.60;99.90;;;;;;4975256;28;20043;-68
2023/07/18 08:56:48;;;;;;;8.52;1.67;;;23.70;99.90;;;;;;4974873;28;20046;-69
2023/07/18 08:59:14;;;;;;;6.97;1.90;;;23.80;99.90;;;;;;4974996;28;20039;-67
2023/07/18 09:01:47;;;;;;;5.50;1.90;;;24.10;99.90;;;;;;4974851;28;20081;-68
2023/07/18 09:04:13;;;;;;;9.18;2.10;;;24.30;99.90;;;;;;4975077;28;20093;-68
2023/07/18 09:06:50;;;;;;;8.63;2.13;;;24.40;99.90;;;;;;4974788;28;20434;-67
2023/07/18 09:09:21;;;;;;;6.35;1.70;;;24.40;98.40;;;;;;4985518;28;20065;-67
2023/07/18 09:12:13;;;;;;;6.72;1.92;;;24.10;99.60;;;;;;4994148;28;20042;-67
2023/07/18 09:14:38;;;;;;;5.93;2.08;;;24.20;97.00;;;;;;4991405;28;20054;-67
2023/07/18 09:17:06;;;;;;;11.05;2.83;;;24.40;98.30;;;;;;4993629;28;20410;-67
2023/07/18 09:19:43;;;;;;;7.15;1.75;;;24.50;98.90;;;;;;4993715;28;20049;-67
2023/07/18 09:22:13;;;;;;;6.45;2.10;;;24.80;97.50;;;;;;4993505;28;20042;-67
2023/07/18 09:24:40;;;;;;;4.80;1.85;;;24.30;98.40;;;;;;4992904;28;20054;-67
2023/07/18 09:27:09;;;;;;;5.65;2.08;;;24.10;99.60;;;;;;4993953;28;20410;-67
2023/07/18 09:29:35;;;;;;;9.70;2.72;;;23.80;99.90;;;;;;4994065;28;20038;-67
2023/07/18 09:32:01;;;;;;;6.68;2.30;;;23.50;99.90;;;;;;4993897;28;20117;-67
2023/07/18 09:34:27;;;;;;;9.20;1.63;;;23.20;99.90;;;;;;4992518;28;20529;-67
2023/07/18 09:36:58;;;;;;;5.47;2.10;;;23.00;99.90;;;;;;4993514;28;20438;-67
2023/07/18 09:39:26;;;;;;;11.35;2.30;;;22.90;99.90;;;;;;4992540;28;20093;-67
2023/07/18 09:41:53;;;;;;;6.13;2.03;;;22.80;99.90;;;;;;4992512;28;20039;-66
2023/07/18 09:44:20;;;;;;;6.93;1.73;;;22.60;99.90;;;;;;4993715;28;20046;-66
2023/07/18 09:46:45;;;;;;;5.13;1.92;;;22.30;99.90;;;;;;4993361;28;20050;-67
2023/07/18 09:49:11;;;;;;;8.25;2.33;;;22.10;99.90;;;;;;4993485;28;20034;-66
2023/07/18 09:51:38;;;;;;;12.10;2.45;;;22.00;99.90;;;;;;4993368;28;20092;-66
2023/07/18 09:54:06;;;;;;;5.80;1.70;;;21.70;99.90;;;;;;4993646;28;20065;-67
2023/07/18 09:56:39;;;;;;;5.93;1.92;;;21.40;99.90;;;;;;4993171;28;20682;-67
2023/07/18 09:59:07;;;;;;;8.80;2.20;;;21.40;99.90;;;;;;4993481;28;20085;-67
2023/07/18 10:01:33;;;;;;;7.47;2.13;;;21.30;99.90;;;;;;4993305;28;20046;-66
2023/07/18 10:03:59;;;;;;;6.45;2.17;;;21.50;99.90;;;;;;4993186;28;20118;-67
2023/07/18 10:06:26;;;;;;;7.07;2.25;;;21.60;99.90;;;;;;4991888;28;20117;-66
2023/07/18 10:08:53;;;;;;;9.02;2.20;;;21.50;99.90;;;;;;4993469;28;20100;-67
2023/07/18 10:11:20;;;;;;;3.80;1.73;;;21.40;99.90;;;;;;4992012;28;20039;-67
2023/07/18 10:13:54;;;;;;;7.47;1.77;;;21.40;99.90;;;;;;4973897;28;20038;-67
2023/07/18 10:16:20;;;;;;;6.80;2.25;;;21.40;99.90;;;;;;4973343;28;20458;-67
2023/07/18 10:18:47;;;;;;;10.27;2.08;;;21.30;99.90;;;;;;4973528;28;20039;-67
2023/07/18 10:21:25;;;;;;;7.38;1.77;;;21.60;99.90;;;;;;4973559;28;20495;-66
2023/07/18 10:23:51;;;;;;;4.70;2.00;;;21.80;99.90;;;;;;4973164;28;20043;-67
2023/07/18 10:26:17;;;;;;;8.05;2.05;;;21.90;99.90;;;;;;4973261;28;20569;-67
2023/07/18 10:28:45;;;;;;;11.77;1.90;;;21.80;99.90;;;;;;4973515;28;20068;-67
2023/07/18 10:31:27;;;;;;;5.13;2.10;;;21.70;99.90;;;;;;4973251;28;20078;-67
2023/07/18 10:34:09;;;;;;;6.88;2.03;;;21.60;99.90;;;;;;4977334;28;20041;-67
2023/07/18 10:36:35;;;;;;;5.57;1.75;;;21.50;99.90;;;;;;4992553;28;20046;-66
2023/07/18 10:39:09;;;;;;;6.00;2.13;;;21.40;99.90;;;;;;4992709;28;20563;-67
2023/07/18 10:41:35;;;;;;;6.35;2.10;;;21.30;99.90;;;;;;4992524;28;20057;-67
2023/07/18 10:44:01;;;;;;;7.63;1.60;;;21.20;99.90;;;;;;4992743;28;20046;-67
2023/07/18 10:46:38;;;;;;;5.00;1.73;;;21.30;99.90;;;;;;4992424;28;20031;-67
2023/07/18 10:49:04;;;;;;;5.18;2.00;;;21.40;99.90;;;;;;4991567;28;20038;-68
2023/07/18 10:51:30;;;;;;;3.40;1.30;;;21.40;99.90;;;;;;4992549;28;20089;-67
2023/07/18 10:53:58;;;;;;;5.97;1.70;;;21.50;99.90;;;;;;4992387;28;20081;-67
2023/07/18 10:56:23;;;;;;;6.13;1.83;;;21.70;99.90;;;;;;4992304;28;20049;-67
2023/07/18 10:58:51;;;;;;;6.80;1.95;;;21.80;99.90;;;;;;4992650;28;20034;-68
2023/07/18 11:01:17;;;;;;;4.72;2.10;;;21.80;99.90;;;;;;4990472;28;20038;-68
2023/07/18 11:03:45;;;;;;;6.82;1.88;;;22.10;99.90;;;;;;4991675;28;20042;-67
2023/07/18 11:06:13;;;;;;;6.38;1.92;;;22.50;99.90;;;;;;4991600;28;20129;-67
2023/07/18 11:08:39;;;;;;;5.10;1.52;;;22.60;99.90;;;;;;4991780;28;20038;-67
2023/07/18 11:11:05;;;;;;;8.00;1.95;;;22.60;99.90;;;;;;4992012;28;20038;-67
2023/07/18 11:13:36;;;;;;;5.15;1.60;;;22.80;99.90;;;;;;4991877;28;20414;-68
2023/07/18 11:16:10;;;;;;;5.13;1.83;;;22.90;99.90;;;;;;4990540;28;20121;-67
2023/07/18 11:18:37;;;;;;;7.80;2.33;;;23.10;99.90;;;;;;4992267;28;20093;-67
2023/07/18 11:21:03;;;;;;;6.90;1.80;;;23.10;99.90;;;;;;4992120;28;20042;-68
2023/07/18 11:23:30;;;;;;;5.25;1.27;;;22.90;99.90;;;;;;4991889;28;20062;-67
2023/07/18 11:25:56;;;;;;;6.25;1.83;;;22.80;99.90;;;;;;4991987;28;20447;-67
2023/07/18 11:28:27;;;;;;;4.78;1.65;;;22.70;99.90;;;;;;4992140;28;20100;-67
2023/07/18 11:30:53;;;;;;;6.22;2.05;;;22.70;99.90;;;;;;4992033;28;20529;-68
2023/07/18 11:33:19;;;;;;;5.38;2.00;;;22.50;99.90;;;;;;4990859;28;20045;-70
2023/07/18 11:35:47;;;;;;;5.82;1.55;;;22.30;99.90;;;;;;4991051;28;20046;-70
2023/07/18 11:38:16;;;;;;;3.85;1.77;;;22.30;99.90;;;;;;4995779;28;20508;-68
2023/07/18 11:40:42;;;;;;;5.40;1.60;;;22.30;99.90;;;;;;4995184;28;20051;-68
2023/07/18 11:43:19;;;;;;;7.20;1.60;;;22.10;99.90;;;;;;4995574;28;20038;-68
2023/07/18 11:45:46;;;;;;;5.22;1.50;;;22.00;99.90;;;;;;4985064;28;20055;-68
2023/07/18 11:48:13;;;;;;;7.88;1.42;;;21.80;99.90;;;;;;4976120;28;20047;-68
2023/07/18 11:50:43;;;;;;;1.90;1.08;;;21.70;99.90;;;;;;4976531;28;20042;-67
2023/07/18 11:53:09;;;;;;;3.80;1.77;;;21.60;99.90;;;;;;4986232;28;20124;-67
2023/07/18 11:55:34;;;;;;;11.27;4.40;;;21.50;99.90;;;;;;4987511;28;20394;-67
2023/07/18 11:58:00;;;;;;;4.88;1.80;;;21.50;99.90;;;;;;4995513;28;20494;-67
2023/07/18 12:00:27;;;;;;;5.65;1.52;;;21.40;99.90;;;;;;5010722;28;20073;-66
2023/07/18 12:02:52;;;;;;;6.05;1.40;;;21.40;99.90;;;;;;4995271;28;20506;-67
2023/07/18 12:05:18;;;;;;;4.95;1.30;;;21.40;99.90;;;;;;4995663;28;20046;-67
2023/07/18 12:07:45;;;;;;;3.78;1.05;;;21.40;99.90;;;;;;4990354;28;20042;-67
2023/07/18 12:10:11;;;;;;;3.03;1.08;;;21.30;99.90;;;;;;4992376;28;20046;-68
2023/07/18 12:12:41;;;;;;;5.32;1.40;;;21.40;99.90;;;;;;4994523;28;20095;-67
2023/07/18 12:15:10;;;;;;;3.92;1.05;;;21.40;99.90;;;;;;4995254;28;20181;-67
2023/07/18 12:17:38;;;;;;;5.00;1.30;;;21.40;99.90;;;;;;4995213;28;20077;-67
2023/07/18 12:20:04;;;;;;;5.70;2.20;;;21.40;99.90;;;;;;4995425;28;20121;-67
2023/07/18 12:22:31;;;;;;;3.70;1.40;;;21.40;99.90;;;;;;4994980;28;20042;-67
2023/07/18 12:24:57;;;;;;;6.25;2.60;;;21.50;99.90;;;;;;4994154;28;20074;-67
2023/07/18 12:27:22;;;;;;;5.88;1.60;;;21.50;99.90;;;;;;4994843;28;20552;-68
2023/07/18 12:29:48;;;;;;;4.97;1.58;;;21.60;99.90;;;;;;5010209;28;20050;-67
2023/07/18 12:32:14;;;;;;;9.05;1.50;;;21.70;99.90;;;;;;4995272;28;20050;-67
2023/07/18 12:34:40;;;;;;;4.47;2.08;;;21.70;99.90;;;;;;4995245;28;20039;-67
2023/07/18 12:37:07;;;;;;;5.95;1.80;;;21.90;99.90;;;;;;4995466;28;20034;-67
2023/07/18 12:39:33;;;;;;;5.22;1.52;;;21.80;99.90;;;;;;4995361;28;20061;-68